Time;durP1;ratioP1;P1;durP2;ratioP2;P2;SDS_P1;SDS_P2;PMS_P1;PMS_P2;Temp;Humidity;BMP_temperature;BMP_pressure;BME280_temperature;BME280_humidity;BME280_pressure;Samples;Min_cycle;Max_cycle;Signal;HPM_P1;HPM_P2
2022/04/16 00:02:19;;;;;;;;;;;;;;;;;;4402403;32;19960;-80
2022/04/16 00:04:45;;;;;;;;;;;;;;;;;;4402429;32;19942;-82
2022/04/16 00:07:10;;;;;;;;;;;;;;;;;;4403440;32;20315;-82
2022/04/16 00:09:35;;;;;;;;;;;;;;;;;;4402595;32;19938;-81
2022/04/16 00:12:00;;;;;;;;;;;;;;;;;;4403787;32;19969;-82
2022/04/16 00:14:25;;;;;;;;;;;;;;;;;;4391653;32;19937;-82
2022/04/16 00:16:50;;;;;;;;;;;;;;;;;;4402350;32;19964;-83
2022/04/16 00:19:15;;;;;;;;;;;;;;;;;;4390745;32;19941;-82
2022/04/16 00:21:41;;;;;;;;;;;;;;;;;;4401877;32;19972;-81
2022/04/16 00:24:07;;;;;;;;;;;;;;;;;;4402019;32;19984;-81
2022/04/16 00:26:32;;;;;;;;;;;;;;;;;;4402215;32;19984;-81
2022/04/16 00:28:58;;;;;;;;;;;;;;;;;;4390961;32;19941;-82
2022/04/16 00:31:23;;;;;;;;;;;;;;;;;;4402180;32;19933;-82
2022/04/16 00:33:48;;;;;;;;;;;;;;;;;;4402080;32;19934;-81
2022/04/16 00:36:16;;;;;;;;;;;;;;;;;;4403184;32;19993;-81
2022/04/16 00:38:41;;;;;;;;;;;;;;;;;;4408933;27;19943;-75
2022/04/16 00:41:06;;;;;;;;;;;;;;;;;;4384434;32;19968;-76
2022/04/16 00:43:32;;;;;;;;;;;;;;;;;;4388137;32;19964;-76
2022/04/16 00:45:57;;;;;;;;;;;;;;;;;;4387933;32;19980;-76
2022/04/16 00:48:22;;;;;;;;;;;;;;;;;;4388786;32;19972;-75
2022/04/16 00:50:47;;;;;;;;;;;;;;;;;;4389048;32;19948;-76
2022/04/16 00:53:12;;;;;;;;;;;;;;;;;;4378280;32;19942;-76
2022/04/16 00:55:38;;;;;;;;;;;;;;;;;;4382307;32;20014;-76
2022/04/16 00:58:03;;;;;;;;;;;;;;;;;;4391089;32;20285;-75
2022/04/16 01:00:28;;;;;;;;;;;;;;;;;;4382481;32;19953;-76
2022/04/16 01:02:53;;;;;;;;;;;;;;;;;;4379472;32;20334;-76
2022/04/16 01:05:19;;;;;;;;;;;;;;;;;;4373069;32;19979;-76
2022/04/16 01:07:44;;;;;;;;;;;;;;;;;;4374256;32;20255;-74
2022/04/16 01:10:10;;;;;;;;;;;;;;;;;;4373913;32;20214;-76
2022/04/16 01:12:35;;;;;;;;;;;;;;;;;;4375419;32;20371;-74
2022/04/16 01:15:00;;;;;;;;;;;;;;;;;;4375456;32;19965;-76
2022/04/16 01:17:25;;;;;;;;;;;;;;;;;;4374065;32;19950;-76
2022/04/16 01:19:50;;;;;;;;;;;;;;;;;;4375131;32;20011;-76
2022/04/16 01:22:15;;;;;;;;;;;;;;;;;;4376644;32;20572;-75
2022/04/16 01:24:43;;;;;;;;;;;;;;;;;;4386641;32;19981;-75
2022/04/16 01:27:08;;;;;;;;;;;;;;;;;;4374495;32;19981;-75
2022/04/16 01:29:33;;;;;;;;;;;;;;;;;;4373052;32;20334;-75
2022/04/16 01:31:59;;;;;;;;;;;;;;;;;;4373147;32;19948;-75
2022/04/16 01:34:25;;;;;;;;;;;;;;;;;;4373092;32;19949;-75
2022/04/16 01:36:52;;;;;;;;;;;;;;;;;;4372951;32;19978;-75
2022/04/16 01:39:17;;;;;;;;;;;;;;;;;;4384869;32;20059;-75
2022/04/16 01:41:42;;;;;;;;;;;;;;;;;;4388105;32;19957;-75
2022/04/16 01:44:07;;;;;;;;;;;;;;;;;;4390692;32;19971;-77
2022/04/16 01:46:33;;;;;;;;;;;;;;;;;;4392513;32;19997;-76
2022/04/16 01:48:58;;;;;;;;;;;;;;;;;;4397808;32;19938;-76
2022/04/16 01:51:24;;;;;;;;;;;;;;;;;;4405929;32;19957;-75
2022/04/16 01:53:49;;;;;;;;;;;;;;;;;;4405825;32;19972;-75
2022/04/16 01:56:14;;;;;;;;;;;;;;;;;;4406850;32;19938;-75
2022/04/16 01:58:39;;;;;;;;;;;;;;;;;;4406013;32;19969;-75
2022/04/16 02:01:05;;;;;;;;;;;;;;;;;;4405545;32;19937;-75
2022/04/16 02:03:30;;;;;;;;;;;;;;;;;;4405609;32;19964;-75
2022/04/16 02:05:55;;;;;;;;;;;;;;;;;;4404899;32;19941;-75
2022/04/16 02:08:20;;;;;;;;;;;;;;;;;;4405636;32;19969;-76
2022/04/16 02:10:45;;;;;;;;;;;;;;;;;;4405945;32;19948;-75
2022/04/16 02:13:10;;;;;;;;;;;;;;;;;;4405344;32;19969;-75
2022/04/16 02:15:35;;;;;;;;;;;;;;;;;;4404929;32;19950;-75
2022/04/16 02:18:00;;;;;;;;;;;;;;;;;;4405448;32;19934;-75
2022/04/16 02:20:25;;;;;;;;;;;;;;;;;;4406052;32;19934;-76
2022/04/16 02:22:52;;;;;;;;;;;;;;;;;;4407118;32;19965;-76
2022/04/16 02:25:17;;;;;;;;;;;;;;;;;;4406241;32;20333;-75
2022/04/16 02:27:42;;;;;;;;;;;;;;;;;;4406233;32;19989;-75
2022/04/16 02:30:07;;;;;;;;;;;;;;;;;;4404655;32;19979;-75
2022/04/16 02:32:35;;;;;;;;;;;;;;;;;;4404668;32;20373;-75
2022/04/16 02:35:00;;;;;;;;;;;;;;;;;;4405053;32;20114;-76
2022/04/16 02:37:25;;;;;;;;;;;;;;;;;;4404757;32;20061;-75
2022/04/16 02:39:50;;;;;;;;;;;;;;;;;;4404505;32;19972;-75
2022/04/16 02:42:18;;;;;;;;;;;;;;;;;;4404816;32;19934;-76
2022/04/16 02:47:29;;;;;;;;;;;;;;;;;;4404891;32;19968;-75
2022/04/16 02:49:54;;;;;;;;;;;;;;;;;;4404869;32;19941;-76
2022/04/16 02:52:20;;;;;;;;;;;;;;;;;;4405626;32;19983;-75
2022/04/16 02:54:45;;;;;;;;;;;;;;;;;;4405004;32;19970;-75
2022/04/16 02:57:11;;;;;;;;;;;;;;;;;;4404919;32;19965;-75
2022/04/16 02:59:36;;;;;;;;;;;;;;;;;;4405160;32;20021;-74
2022/04/16 03:02:02;;;;;;;;;;;;;;;;;;4406493;32;19971;-74
2022/04/16 03:04:27;;;;;;;;;;;;;;;;;;4406279;32;19941;-75
2022/04/16 03:06:52;;;;;;;;;;;;;;;;;;4404696;32;20263;-76
2022/04/16 03:09:17;;;;;;;;;;;;;;;;;;4406307;32;19956;-76
2022/04/16 03:11:43;;;;;;;;;;;;;;;;;;4406093;32;19933;-76
2022/04/16 03:19:35;;;;;;;;;;;;;;;;;;4407297;32;19961;-77
2022/04/16 03:22:00;;;;;;;;;;;;;;;;;;4406655;32;19973;-76
2022/04/16 03:24:26;;;;;;;;;;;;;;;;;;4405009;32;19937;-76
2022/04/16 03:26:51;;;;;;;;;;;;;;;;;;4406838;32;19955;-74
2022/04/16 03:29:16;;;;;;;;;;;;;;;;;;4406115;32;19944;-76
2022/04/16 03:31:41;;;;;;;;;;;;;;;;;;4405082;32;19994;-76
2022/04/16 03:34:06;;;;;;;;;;;;;;;;;;4406373;32;19951;-76
2022/04/16 03:36:32;;;;;;;;;;;;;;;;;;4404314;32;19944;-76
2022/04/16 03:38:57;;;;;;;;;;;;;;;;;;4404236;32;20303;-77
2022/04/16 03:41:22;;;;;;;;;;;;;;;;;;4404979;32;20276;-77
2022/04/16 03:43:47;;;;;;;;;;;;;;;;;;4404470;32;19934;-76
2022/04/16 03:46:12;;;;;;;;;;;;;;;;;;4405971;32;19997;-76
2022/04/16 03:48:38;;;;;;;;;;;;;;;;;;4404404;32;20053;-76
2022/04/16 03:51:03;;;;;;;;;;;;;;;;;;4403291;32;19938;-76
2022/04/16 03:53:28;;;;;;;;;;;;;;;;;;4404636;32;19945;-75
2022/04/16 03:59:59;;;;;;;;;;;;;;;;;;4404163;32;19978;-75
2022/04/16 04:01:41;;;;;;;;;;;;;;;;;;4405188;32;20141;-77
2022/04/16 04:04:06;;;;;;;;;;;;;;;;;;4405347;32;19996;-76
2022/04/16 04:06:31;;;;;;;;;;;;;;;;;;4404731;32;20010;-75
2022/04/16 04:08:57;;;;;;;;;;;;;;;;;;4406525;32;19942;-75
2022/04/16 04:11:22;;;;;;;;;;;;;;;;;;4405324;32;20021;-75
2022/04/16 04:13:47;;;;;;;;;;;;;;;;;;4404623;32;20299;-76
2022/04/16 04:16:12;;;;;;;;;;;;;;;;;;4404920;32;19934;-76
2022/04/16 04:18:37;;;;;;;;;;;;;;;;;;4405913;32;19941;-76
2022/04/16 04:21:02;;;;;;;;;;;;;;;;;;4406064;32;20277;-76
2022/04/16 04:23:27;;;;;;;;;;;;;;;;;;4404578;32;19984;-76
2022/04/16 04:25:52;;;;;;;;;;;;;;;;;;4404482;32;20263;-76
2022/04/16 04:28:17;;;;;;;;;;;;;;;;;;4404134;32;19953;-76
2022/04/16 04:30:43;;;;;;;;;;;;;;;;;;4403934;32;19960;-76
2022/04/16 04:33:08;;;;;;;;;;;;;;;;;;4404816;32;19937;-76
2022/04/16 04:35:33;;;;;;;;;;;;;;;;;;4402325;32;20005;-76
2022/04/16 04:37:58;;;;;;;;;;;;;;;;;;4403638;32;19949;-76
2022/04/16 04:40:23;;;;;;;;;;;;;;;;;;4405852;32;19942;-76
2022/04/16 04:42:48;;;;;;;;;;;;;;;;;;4403437;32;19937;-77
2022/04/16 04:45:13;;;;;;;;;;;;;;;;;;4403802;32;19937;-75
2022/04/16 04:47:38;;;;;;;;;;;;;;;;;;4405320;32;19942;-75
2022/04/16 04:50:03;;;;;;;;;;;;;;;;;;4405405;32;20404;-77
2022/04/16 04:52:29;;;;;;;;;;;;;;;;;;4405063;32;19980;-75
2022/04/16 04:54:54;;;;;;;;;;;;;;;;;;4403572;32;19933;-75
2022/04/16 04:57:19;;;;;;;;;;;;;;;;;;4403991;32;19953;-76
2022/04/16 04:59:45;;;;;;;;;;;;;;;;;;4403169;32;19956;-75
2022/04/16 05:02:10;;;;;;;;;;;;;;;;;;4401823;32;19971;-75
2022/04/16 05:04:35;;;;;;;;;;;;;;;;;;4401285;32;19955;-74
2022/04/16 05:07:00;;;;;;;;;;;;;;;;;;4402498;32;19948;-76
2022/04/16 05:09:25;;;;;;;;;;;;;;;;;;4402305;32;20083;-74
2022/04/16 05:11:50;;;;;;;;;;;;;;;;;;4396343;32;19970;-76
2022/04/16 05:14:15;;;;;;;;;;;;;;;;;;4392550;32;19938;-75
2022/04/16 05:16:40;;;;;;;;;;;;;;;;;;4392446;32;20304;-75
2022/04/16 05:19:05;;;;;;;;;;;;;;;;;;4401074;32;19998;-75
2022/04/16 05:21:30;;;;;;;;;;;;;;;;;;4391725;32;19976;-76
2022/04/16 05:23:56;;;;;;;;;;;;;;;;;;4391171;32;19934;-76
2022/04/16 05:26:21;;;;;;;;;;;;;;;;;;4394740;32;20383;-74
2022/04/16 05:28:46;;;;;;;;;;;;;;;;;;4407255;32;20224;-74
2022/04/16 05:31:11;;;;;;;;;;;;;;;;;;4400234;32;19980;-76
2022/04/16 05:36:20;;;;;;;;;;;;;;;;;;4398068;32;19999;-74
2022/04/16 05:38:45;;;;;;;;;;;;;;;;;;4401937;32;19989;-76
2022/04/16 05:41:10;;;;;;;;;;;;;;;;;;4401735;32;20314;-75
2022/04/16 05:43:35;;;;;;;;;;;;;;;;;;4399927;32;20000;-75
2022/04/16 05:46:02;;;;;;;;;;;;;;;;;;4397873;32;19973;-75
2022/04/16 05:48:27;;;;;;;;;;;;;;;;;;4399803;32;19942;-75
2022/04/16 05:50:52;;;;;;;;;;;;;;;;;;4400539;32;19967;-76
2022/04/16 05:53:17;;;;;;;;;;;;;;;;;;4399196;32;19933;-76
2022/04/16 05:55:42;;;;;;;;;;;;;;;;;;4399452;32;19933;-76
2022/04/16 05:58:07;;;;;;;;;;;;;;;;;;4397720;32;19938;-75
2022/04/16 06:00:33;;;;;;;;;;;;;;;;;;4398192;32;19934;-75
2022/04/16 06:02:58;;;;;;;;;;;;;;;;;;4397621;32;20235;-75
2022/04/16 06:05:23;;;;;;;;;;;;;;;;;;4401946;32;19957;-76
2022/04/16 06:07:48;;;;;;;;;;;;;;;;;;4398729;32;19992;-75
2022/04/16 06:10:13;;;;;;;;;;;;;;;;;;4400170;32;19997;-76
2022/04/16 06:12:41;;;;;;;;;;;;;;;;;;4399165;32;19999;-76
2022/04/16 06:15:06;;;;;;;;;;;;;;;;;;4397566;32;20265;-76
2022/04/16 06:17:31;;;;;;;;;;;;;;;;;;4399484;32;20067;-74
2022/04/16 06:19:56;;;;;;;;;;;;;;;;;;4399040;32;20020;-75
2022/04/16 06:22:21;;;;;;;;;;;;;;;;;;4395400;32;20331;-75
2022/04/16 06:24:46;;;;;;;;;;;;;;;;;;4399737;32;20045;-74
2022/04/16 06:27:12;;;;;;;;;;;;;;;;;;4398220;32;19950;-75
2022/04/16 06:29:37;;;;;;;;;;;;;;;;;;4396649;32;20020;-76
2022/04/16 06:32:03;;;;;;;;;;;;;;;;;;4398376;32;19938;-75
2022/04/16 06:34:28;;;;;;;;;;;;;;;;;;4398414;32;19934;-75
2022/04/16 06:36:53;;;;;;;;;;;;;;;;;;4397518;32;20102;-75
2022/04/16 06:39:18;;;;;;;;;;;;;;;;;;4401257;32;20369;-76
2022/04/16 06:41:43;;;;;;;;;;;;;;;;;;4401937;32;20032;-75
2022/04/16 06:44:08;;;;;;;;;;;;;;;;;;4408069;32;19965;-75
2022/04/16 06:46:33;;;;;;;;;;;;;;;;;;4406565;32;19956;-80
2022/04/16 06:48:58;;;;;;;;;;;;;;;;;;4405381;32;20274;-80
2022/04/16 06:51:23;;;;;;;;;;;;;;;;;;4407819;32;19938;-84
2022/04/16 06:53:48;;;;;;;;;;;;;;;;;;4408170;32;19937;-82
2022/04/16 06:56:13;;;;;;;;;;;;;;;;;;4407580;32;19948;-81
2022/04/16 06:58:39;;;;;;;;;;;;;;;;;;4405817;32;19950;-79
2022/04/16 07:01:04;;;;;;;;;;;;;;;;;;4407507;32;19933;-80
2022/04/16 07:03:29;;;;;;;;;;;;;;;;;;4408340;32;19934;-80
2022/04/16 07:05:54;;;;;;;;;;;;;;;;;;4407163;32;19942;-80
2022/04/16 07:08:19;;;;;;;;;;;;;;;;;;4408402;32;20374;-79
2022/04/16 07:10:44;;;;;;;;;;;;;;;;;;4406959;32;19933;-80
2022/04/16 07:13:09;;;;;;;;;;;;;;;;;;4406996;32;19950;-80
2022/04/16 07:15:34;;;;;;;;;;;;;;;;;;4395295;32;19956;-80
2022/04/16 07:18:00;;;;;;;;;;;;;;;;;;4406778;32;19991;-80
2022/04/16 07:20:25;;;;;;;;;;;;;;;;;;4401236;32;19937;-80
2022/04/16 07:22:50;;;;;;;;;;;;;;;;;;4400110;32;19949;-80
2022/04/16 07:25:15;;;;;;;;;;;;;;;;;;4407430;32;19937;-80
2022/04/16 07:27:42;;;;;;;;;;;;;;;;;;4407411;32;19964;-80
2022/04/16 07:30:07;;;;;;;;;;;;;;;;;;4405491;32;20371;-80
2022/04/16 07:32:32;;;;;;;;;;;;;;;;;;4407475;32;20310;-79
2022/04/16 07:34:57;;;;;;;;;;;;;;;;;;4409433;32;19933;-80
2022/04/16 07:37:23;;;;;;;;;;;;;;;;;;4416650;32;19941;-80
2022/04/16 07:39:48;;;;;;;;;;;;;;;;;;4419438;32;19929;-79
2022/04/16 07:42:13;;;;;;;;;;;;;;;;;;4408107;32;19938;-79
2022/04/16 07:44:38;;;;;;;;;;;;;;;;;;4407374;32;19940;-77
2022/04/16 07:47:03;;;;;;;;;;;;;;;;;;4405085;32;20315;-80
2022/04/16 07:49:28;;;;;;;;;;;;;;;;;;4402801;32;19952;-79
2022/04/16 07:51:53;;;;;;;;;;;;;;;;;;4391024;32;19997;-79
2022/04/16 07:54:18;;;;;;;;;;;;;;;;;;4391225;32;19985;-80
2022/04/16 07:56:43;;;;;;;;;;;;;;;;;;4391231;32;20348;-78
2022/04/16 07:59:08;;;;;;;;;;;;;;;;;;4398724;32;20315;-79
2022/04/16 08:01:33;;;;;;;;;;;;;;;;;;4406030;32;19944;-79
2022/04/16 08:03:58;;;;;;;;;;;;;;;;;;4406398;32;19938;-79
2022/04/16 08:06:24;;;;;;;;;;;;;;;;;;4406549;32;19941;-78
2022/04/16 08:08:49;;;;;;;;;;;;;;;;;;4405761;32;20387;-78
2022/04/16 08:11:14;;;;;;;;;;;;;;;;;;4406783;32;19976;-79
2022/04/16 08:13:39;;;;;;;;;;;;;;;;;;4405735;32;19973;-79
2022/04/16 08:16:04;;;;;;;;;;;;;;;;;;4406502;32;19989;-78
2022/04/16 08:18:29;;;;;;;;;;;;;;;;;;4405184;32;19947;-78
2022/04/16 08:20:54;;;;;;;;;;;;;;;;;;4407459;32;19942;-79
2022/04/16 08:23:19;;;;;;;;;;;;;;;;;;4407339;32;19938;-79
2022/04/16 08:25:44;;;;;;;;;;;;;;;;;;4406007;32;19995;-79
2022/04/16 08:28:09;;;;;;;;;;;;;;;;;;4406077;32;19933;-78
2022/04/16 08:30:35;;;;;;;;;;;;;;;;;;4406063;32;19952;-79
2022/04/16 08:33:00;;;;;;;;;;;;;;;;;;4402274;32;19950;-79
2022/04/16 08:35:25;;;;;;;;;;;;;;;;;;4390584;32;19938;-79
2022/04/16 08:37:50;;;;;;;;;;;;;;;;;;4390620;32;19938;-79
2022/04/16 08:40:15;;;;;;;;;;;;;;;;;;4403880;32;19949;-80
2022/04/16 08:42:40;;;;;;;;;;;;;;;;;;4407978;32;19953;-80
2022/04/16 08:45:05;;;;;;;;;;;;;;;;;;4406776;32;19938;-79
2022/04/16 08:47:30;;;;;;;;;;;;;;;;;;4406136;32;20049;-80
2022/04/16 08:49:55;;;;;;;;;;;;;;;;;;4405371;32;19933;-78
2022/04/16 08:52:21;;;;;;;;;;;;;;;;;;4406667;32;19969;-80
2022/04/16 08:54:46;;;;;;;;;;;;;;;;;;4405851;32;19948;-78
2022/04/16 08:57:11;;;;;;;;;;;;;;;;;;4406181;32;20024;-78
2022/04/16 08:59:36;;;;;;;;;;;;;;;;;;4406811;32;20284;-78
2022/04/16 09:02:01;;;;;;;;;;;;;;;;;;4406411;32;19977;-80
2022/04/16 09:04:26;;;;;;;;;;;;;;;;;;4401612;32;19952;-80
2022/04/16 09:06:51;;;;;;;;;;;;;;;;;;4392308;32;19991;-79
2022/04/16 09:09:16;;;;;;;;;;;;;;;;;;4391021;32;20076;-79
2022/04/16 09:11:42;;;;;;;;;;;;;;;;;;4389917;32;19934;-78
2022/04/16 09:14:07;;;;;;;;;;;;;;;;;;4394901;32;19937;-79
2022/04/16 09:16:32;;;;;;;;;;;;;;;;;;4406910;32;19937;-79
2022/04/16 09:18:57;;;;;;;;;;;;;;;;;;4408287;32;19989;-80
2022/04/16 09:21:22;;;;;;;;;;;;;;;;;;4408451;32;20263;-79
2022/04/16 09:23:47;;;;;;;;;;;;;;;;;;4410003;32;19934;-80
2022/04/16 09:26:13;;;;;;;;;;;;;;;;;;4408291;32;19980;-80
2022/04/16 09:28:38;;;;;;;;;;;;;;;;;;4406319;32;19937;-79
2022/04/16 09:31:04;;;;;;;;;;;;;;;;;;4406484;32;19957;-79
2022/04/16 09:33:29;;;;;;;;;;;;;;;;;;4403798;32;19980;-80
2022/04/16 09:35:54;;;;;;;;;;;;;;;;;;4406551;32;20369;-78
2022/04/16 09:38:19;;;;;;;;;;;;;;;;;;4406001;32;19944;-80
2022/04/16 09:40:44;;;;;;;;;;;;;;;;;;4405490;32;20053;-80
2022/04/16 09:43:09;;;;;;;;;;;;;;;;;;4403454;32;20236;-80
2022/04/16 09:45:34;;;;;;;;;;;;;;;;;;4405229;32;20319;-78
2022/04/16 09:47:59;;;;;;;;;;;;;;;;;;4417337;32;19933;-79
2022/04/16 09:50:25;;;;;;;;;;;;;;;;;;4415545;32;19938;-80
2022/04/16 09:52:50;;;;;;;;;;;;;;;;;;4409388;32;19976;-79
2022/04/16 09:55:15;;;;;;;;;;;;;;;;;;4407036;32;19985;-79
2022/04/16 09:57:40;;;;;;;;;;;;;;;;;;4405208;32;19981;-80
2022/04/16 10:00:05;;;;;;;;;;;;;;;;;;4399978;32;19999;-79
2022/04/16 10:02:31;;;;;;;;;;;;;;;;;;4397592;32;20283;-80
2022/04/16 10:04:56;;;;;;;;;;;;;;;;;;4406947;32;19971;-79
2022/04/16 10:07:21;;;;;;;;;;;;;;;;;;4406109;32;20229;-79
2022/04/16 10:09:53;;;;;;;;;;;;;;;;;;4409240;32;19934;-78
2022/04/16 10:14:43;;;;;;;;;;;;;;;;;;4407059;32;19955;-79
2022/04/16 10:17:08;;;;;;;;;;;;;;;;;;4409090;32;20369;-79
2022/04/16 10:19:33;;;;;;;;;;;;;;;;;;4410129;32;19961;-79
2022/04/16 10:21:58;;;;;;;;;;;;;;;;;;4408829;32;19964;-79
2022/04/16 10:24:24;;;;;;;;;;;;;;;;;;4404915;32;19958;-78
2022/04/16 10:26:49;;;;;;;;;;;;;;;;;;4396711;32;20282;-80
2022/04/16 10:29:14;;;;;;;;;;;;;;;;;;4406149;32;19986;-78
2022/04/16 10:31:39;;;;;;;;;;;;;;;;;;4400118;32;19945;-78
2022/04/16 10:34:04;;;;;;;;;;;;;;;;;;4407456;32;19952;-78
2022/04/16 10:36:32;;;;;;;;;;;;;;;;;;4406613;32;20294;-79
2022/04/16 10:38:57;;;;;;;;;;;;;;;;;;4396879;32;20350;-77
2022/04/16 10:41:22;;;;;;;;;;;;;;;;;;4388975;32;20259;-79
2022/04/16 10:43:47;;;;;;;;;;;;;;;;;;4388479;32;19957;-80
2022/04/16 10:46:12;;;;;;;;;;;;;;;;;;4393203;32;20315;-79
2022/04/16 10:48:37;;;;;;;;;;;;;;;;;;4392723;32;19990;-79
2022/04/16 10:51:03;;;;;;;;;;;;;;;;;;4391538;32;19961;-78
2022/04/16 10:53:28;;;;;;;;;;;;;;;;;;4390685;32;19938;-78
2022/04/16 10:55:53;;;;;;;;;;;;;;;;;;4392290;32;19945;-79
2022/04/16 10:58:20;;;;;;;;;;;;;;;;;;4395855;32;19922;-79
2022/04/16 11:00:45;;;;;;;;;;;;;;;;;;4393342;32;20296;-80
2022/04/16 11:03:11;;;;;;;;;;;;;;;;;;4390870;32;20247;-80
2022/04/16 11:05:42;;;;;;;;;;;;;;;;;;4387432;32;19946;-79
2022/04/16 11:08:07;;;;;;;;;;;;;;;;;;4376848;32;19937;-79
2022/04/16 11:10:32;;;;;;;;;;;;;;;;;;4391331;32;19994;-80
2022/04/16 11:12:57;;;;;;;;;;;;;;;;;;4403468;32;19945;-79
2022/04/16 11:15:26;;;;;;;;;;;;;;;;;;4402584;32;19952;-79
2022/04/16 11:17:51;;;;;;;;;;;;;;;;;;4385168;32;19989;-79
2022/04/16 11:20:16;;;;;;;;;;;;;;;;;;4384095;32;20320;-79
2022/04/16 11:22:41;;;;;;;;;;;;;;;;;;4377092;32;20008;-78
2022/04/16 11:25:06;;;;;;;;;;;;;;;;;;4375914;32;19942;-80
2022/04/16 11:35:43;;;;;;;;;;;;;;;;;;4387963;32;20302;-79
2022/04/16 11:38:09;;;;;;;;;;;;;;;;;;4380771;32;20283;-81
2022/04/16 11:40:34;;;;;;;;;;;;;;;;;;4391003;32;19946;-78
2022/04/16 11:42:59;;;;;;;;;;;;;;;;;;4392207;32;19960;-80
2022/04/16 11:45:24;;;;;;;;;;;;;;;;;;4390313;32;19938;-80
2022/04/16 11:47:50;;;;;;;;;;;;;;;;;;4390505;32;20119;-80
2022/04/16 11:50:15;;;;;;;;;;;;;;;;;;4390975;32;19950;-79
2022/04/16 11:52:40;;;;;;;;;;;;;;;;;;4401258;32;19977;-79
2022/04/16 11:55:05;;;;;;;;;;;;;;;;;;4405981;32;20384;-78
2022/04/16 11:57:30;;;;;;;;;;;;;;;;;;4410892;32;19941;-80
2022/04/16 11:59:55;;;;;;;;;;;;;;;;;;4419868;32;19918;-79
2022/04/16 12:02:21;;;;;;;;;;;;;;;;;;4397164;32;20000;-79
2022/04/16 12:04:46;;;;;;;;;;;;;;;;;;4393937;32;20307;-80
2022/04/16 12:07:11;;;;;;;;;;;;;;;;;;4391633;32;20088;-78
2022/04/16 12:09:36;;;;;;;;;;;;;;;;;;4390642;32;19950;-81
2022/04/16 12:12:03;;;;;;;;;;;;;;;;;;4390422;32;20016;-80
2022/04/16 12:14:28;;;;;;;;;;;;;;;;;;4389296;32;19941;-81
2022/04/16 12:16:53;;;;;;;;;;;;;;;;;;4389570;32;19934;-80
2022/04/16 12:19:18;;;;;;;;;;;;;;;;;;4390552;32;19934;-80
2022/04/16 12:21:43;;;;;;;;;;;;;;;;;;4394343;32;20263;-80
2022/04/16 12:24:09;;;;;;;;;;;;;;;;;;4404811;32;19989;-79
2022/04/16 12:26:34;;;;;;;;;;;;;;;;;;4399791;32;19945;-80
2022/04/16 12:28:59;;;;;;;;;;;;;;;;;;4401175;32;19968;-80
2022/04/16 12:31:24;;;;;;;;;;;;;;;;;;4409337;32;20326;-79
2022/04/16 12:33:49;;;;;;;;;;;;;;;;;;4406254;32;20320;-80
2022/04/16 12:36:15;;;;;;;;;;;;;;;;;;4403837;32;19941;-78
2022/04/16 12:38:40;;;;;;;;;;;;;;;;;;4405598;32;19991;-76
2022/04/16 12:41:05;;;;;;;;;;;;;;;;;;4405912;32;19959;-82
2022/04/16 12:43:30;;;;;;;;;;;;;;;;;;4400829;32;20036;-79
2022/04/16 12:45:55;;;;;;;;;;;;;;;;;;4391962;32;19962;-79
2022/04/16 12:48:20;;;;;;;;;;;;;;;;;;4391038;32;19971;-79
2022/04/16 12:50:45;;;;;;;;;;;;;;;;;;4391031;32;20091;-79
2022/04/16 12:53:10;;;;;;;;;;;;;;;;;;4390298;32;19953;-78
2022/04/16 12:55:35;;;;;;;;;;;;;;;;;;4390635;32;19952;-78
2022/04/16 12:58:01;;;;;;;;;;;;;;;;;;4390156;32;19972;-77
2022/04/16 13:00:26;;;;;;;;;;;;;;;;;;4391688;32;20307;-79
2022/04/16 13:02:51;;;;;;;;;;;;;;;;;;4388358;32;19944;-79
2022/04/16 13:05:17;;;;;;;;;;;;;;;;;;4388234;32;19953;-79
2022/04/16 13:07:42;;;;;;;;;;;;;;;;;;4389296;32;20004;-79
2022/04/16 13:10:08;;;;;;;;;;;;;;;;;;4395630;32;19933;-79
2022/04/16 13:12:33;;;;;;;;;;;;;;;;;;4403309;32;20003;-78
2022/04/16 13:17:31;;;;;;;10.45;7.40;;;;;;;;;;4496076;31;20054;-75
2022/04/16 13:19:56;;;;;;;8.23;7.43;;;;;;;;;;4464971;32;20029;-73
2022/04/16 13:22:21;;;;;;;8.00;7.00;;;;;;;;;;4476629;32;20025;-74
2022/04/16 13:24:47;;;;;;;8.07;7.28;;;;;;;;;;4470133;32;20115;-75
2022/04/16 13:27:12;;;;;;;8.30;6.20;;;;;;;;;;4466065;32;20538;-75
2022/04/16 13:29:38;;;;;;;7.85;6.87;;;;;;;;;;4479370;32;20037;-75
2022/04/16 13:32:04;;;;;;;8.32;6.78;;;;;;;;;;4480880;32;20486;-74
2022/04/16 13:34:30;;;;;;;7.65;6.43;;;;;;;;;;4478712;32;20029;-74
2022/04/16 13:36:55;;;;;;;7.72;6.97;;;;;;;;;;4480270;32;20021;-76
2022/04/16 13:42:04;;;;;;;8.25;6.85;;;;;;;;;;4465858;32;20204;-76
2022/04/16 13:44:29;;;;;;;8.98;7.20;;;;;;;;;;4450428;32;20493;-75
2022/04/16 13:46:55;;;;;;;12.53;6.60;;;;;;;;;;4448387;32;20037;-75
2022/04/16 13:49:20;;;;;;;7.78;6.15;;;;;;;;;;4449312;32;20639;-75
2022/04/16 13:51:45;;;;;;;8.35;6.05;;;;;;;;;;4464586;32;20555;-75
2022/04/16 13:54:11;;;;;;;12.20;7.15;;;;;;;;;;4463917;32;20453;-74
2022/04/16 13:56:37;;;;;;;8.55;6.90;;;;;;;;;;4449268;32;20123;-75
2022/04/16 13:59:02;;;;;;;7.68;6.87;;;;;;;;;;4466555;32;20055;-74
2022/04/16 14:01:28;;;;;;;8.18;6.87;;;;;;;;;;4463082;32;20395;-75
2022/04/16 14:03:54;;;;;;;8.38;6.82;;;;;;;;;;4462424;32;20122;-74
2022/04/16 14:06:19;;;;;;;8.10;7.30;;;;;;;;;;4461476;32;20085;-74
2022/04/16 14:08:45;;;;;;;8.45;6.75;;;;;;;;;;4469286;32;20336;-74
2022/04/16 14:11:10;;;;;;;6.78;5.90;;;;;;;;;;4468683;32;20051;-76
2022/04/16 14:13:35;;;;;;;8.02;6.03;;;;;;;;;;4481004;32;20469;-75
2022/04/16 14:16:02;;;;;;;6.62;5.82;;;;;;;;;;4480620;32;20079;-75
2022/04/16 14:18:28;;;;;;;7.25;6.45;;;;;;;;;;4465848;32;20444;-75
2022/04/16 14:20:53;;;;;;;8.07;6.40;;;;;;;;;;4465486;32;20025;-74
2022/04/16 14:23:18;;;;;;;9.23;6.78;;;;;;;;;;4463535;32;20092;-74
2022/04/16 14:25:43;;;;;;;6.27;5.67;;;;;;;;;;4481096;32;20024;-74
2022/04/16 14:28:09;;;;;;;7.87;5.80;;;;;;;;;;4458218;32;20173;-75
2022/04/16 14:30:36;;;;;;;6.95;5.85;;;;;;;;;;4468648;32;20112;-75
2022/04/16 14:33:01;;;;;;;8.15;6.60;;;;;;;;;;4455947;32;20071;-74
2022/04/16 14:35:26;;;;;;;7.97;6.12;;;;;;;;;;4470331;32;20032;-75
2022/04/16 14:37:51;;;;;;;8.70;6.80;;;;;;;;;;4453322;32;20056;-76
2022/04/16 14:40:17;;;;;;;9.23;6.60;;;;;;;;;;4469917;32;20124;-75
2022/04/16 14:42:43;;;;;;;9.40;6.22;;;;;;;;;;4454157;32;20240;-75
2022/04/16 14:45:08;;;;;;;7.87;5.78;;;;;;;;;;4470099;32;20105;-76
2022/04/16 14:47:33;;;;;;;7.03;5.55;;;;;;;;;;4466406;32;20060;-76
2022/04/16 14:49:59;;;;;;;6.87;4.85;;;;;;;;;;4455239;32;20059;-76
2022/04/16 14:52:25;;;;;;;8.68;5.78;;;;;;;;;;4469416;32;20080;-75
2022/04/16 14:54:51;;;;;;;7.95;5.55;;;;;;;;;;4468212;32;20052;-75
2022/04/16 14:57:16;;;;;;;8.25;5.50;;;;;;;;;;4467223;32;20033;-76
2022/04/16 14:59:42;;;;;;;6.03;4.77;;;;;;;;;;4455845;32;20403;-74
2022/04/16 15:02:07;;;;;;;6.97;5.10;;;;;;;;;;4462642;32;20124;-75
2022/04/16 15:04:32;;;;;;;5.90;5.00;;;;;;;;;;4452899;32;20033;-75
2022/04/16 15:06:57;;;;;;;8.27;5.12;;;;;;;;;;4466883;32;20362;-75
2022/04/16 15:09:22;;;;;;;9.18;4.97;;;;;;;;;;4467324;32;20405;-75
2022/04/16 15:11:48;;;;;;;6.80;5.00;;;;;;;;;;4467148;32;20021;-75
2022/04/16 15:14:13;;;;;;;6.47;5.37;;;;;;;;;;4467127;32;20144;-76
2022/04/16 15:16:38;;;;;;;7.03;4.37;;;;;;;;;;4444247;32;20165;-76
2022/04/16 15:19:03;;;;;;;8.27;5.57;;;;;;;;;;4453451;32;20061;-75
2022/04/16 15:21:28;;;;;;;4.70;4.10;;;;;;;;;;4438697;32;20124;-75
2022/04/16 15:23:55;;;;;;;6.20;3.95;;;;;;;;;;4452118;32;20433;-75
2022/04/16 15:26:20;;;;;;;7.07;4.20;;;;;;;;;;4452201;32;20144;-75
2022/04/16 15:28:45;;;;;;;6.95;3.83;;;;;;;;;;4452128;32;20395;-75
2022/04/16 15:31:22;;;;;;;4.95;3.75;;;;;;;;;;4442218;32;20199;-75
2022/04/16 15:33:47;;;;;;;6.87;3.90;;;;;;;;;;4451101;32;20025;-74
2022/04/16 15:36:13;;;;;;;3.95;3.25;;;;;;;;;;4437272;32;20086;-75
2022/04/16 15:38:38;;;;;;;5.47;4.20;;;;;;;;;;4451419;32;20029;-75
2022/04/16 15:41:03;;;;;;;5.33;3.77;;;;;;;;;;4450353;32;20343;-75
2022/04/16 15:43:28;;;;;;;7.12;3.85;;;;;;;;;;4456799;32;20146;-75
2022/04/16 15:45:53;;;;;;;6.35;4.03;;;;;;;;;;4451977;32;20064;-74
2022/04/16 15:48:18;;;;;;;5.43;3.85;;;;;;;;;;4466088;32;20021;-76
2022/04/16 15:50:47;;;;;;;6.93;4.15;;;;;;;;;;4468539;32;20132;-76
2022/04/16 15:53:12;;;;;;;5.05;4.20;;;;;;;;;;4452014;32;20116;-75
2022/04/16 15:55:37;;;;;;;5.72;3.60;;;;;;;;;;4452365;32;20359;-76
2022/04/16 15:58:02;;;;;;;6.70;3.90;;;;;;;;;;4466925;32;20078;-75
2022/04/16 16:00:28;;;;;;;11.30;4.35;;;;;;;;;;4465256;32;20085;-74
2022/04/16 16:02:53;;;;;;;5.35;3.90;;;;;;;;;;4451941;32;20076;-75
2022/04/16 16:05:18;;;;;;;6.75;4.22;;;;;;;;;;4450804;32;20021;-74
2022/04/16 16:07:45;;;;;;;10.00;4.43;;;;;;;;;;4451083;32;20152;-76
2022/04/16 16:10:12;;;;;;;10.20;4.32;;;;;;;;;;4449871;32;20025;-76
2022/04/16 16:12:38;;;;;;;6.95;5.25;;;;;;;;;;4436600;32;20025;-76
2022/04/16 16:15:06;;;;;;;6.85;4.75;;;;;;;;;;4451919;32;20053;-75
2022/04/16 16:17:31;;;;;;;8.23;3.90;;;;;;;;;;4436820;32;20103;-76
2022/04/16 16:19:56;;;;;;;8.05;4.03;;;;;;;;;;4455438;32;20048;-76
2022/04/16 16:22:22;;;;;;;5.75;4.43;;;;;;;;;;4443666;32;20074;-75
2022/04/16 16:24:47;;;;;;;9.43;5.00;;;;;;;;;;4454156;32;20129;-76
2022/04/16 16:27:14;;;;;;;7.82;4.80;;;;;;;;;;4464139;32;20228;-75
2022/04/16 16:29:39;;;;;;;8.30;4.40;;;;;;;;;;4452124;32;20044;-75
2022/04/16 16:32:04;;;;;;;13.73;4.72;;;;;;;;;;4455533;32;20021;-75
2022/04/16 16:34:29;;;;;;;13.05;5.28;;;;;;;;;;4450698;32;20041;-76